Time,TemperatureF,DewpointF,PressureIn,WindDirection,WindDirectionDegrees,WindSpeedMPH,WindSpeedGustMPH,Humidity,HourlyPrecipIn,Conditions,Clouds,dailyrainin,SolarRadiationWatts/m^2,SoftwareType,DateUTC
2013-03-09 00:01:00,25.1,22.8,30.35,WNW,285,0.0,0.0,91,0.00,,,0.00,0,Wunderground v.1.15,2013-03-09 05:01:00,
2013-03-09 00:02:00,25.1,22.8,30.35,WNW,285,0.0,0.0,91,0.00,,,0.00,0,Wunderground v.1.15,2013-03-09 05:02:00,
2013-03-09 00:03:00,25.1,22.8,30.35,WNW,285,0.0,0.0,91,0.00,,,0.00,0,Wunderground v.1.15,2013-03-09 05:03:00,
2013-03-09 00:04:00,25.0,22.7,30.34,WNW,285,0.0,0.0,91,0.00,,,0.00,0,Wunderground v.1.15,2013-03-09 05:04:00,
2013-03-09 00:09:00,24.8,22.5,30.34,WNW,285,0.0,0.0,91,0.00,,,0.00,0,Wunderground v.1.15,2013-03-09 05:09:00,
2013-03-09 00:14:00,24.8,22.8,30.34,WNW,285,0.0,0.0,92,0.00,,,0.00,0,Wunderground v.1.15,2013-03-09 05:14:00,
2013-03-09 00:19:00,24.7,22.7,30.34,WNW,285,0.0,0.0,92,0.00,,,0.00,0,Wunderground v.1.15,2013-03-09 05:19:00,
2013-03-09 00:25:00,24.6,22.6,30.34,WNW,285,0.0,0.0,92,0.00,,,0.00,0,Wunderground v.1.15,2013-03-09 05:25:00,
2013-03-09 00:30:00,24.6,22.6,30.35,WNW,285,0.0,0.0,92,0.00,,,0.00,0,Wunderground v.1.15,2013-03-09 05:30:00,
2013-03-09 00:35:00,24.5,22.5,30.35,WNW,285,0.0,0.0,92,0.00,,,0.00,0,Wunderground v.1.15,2013-03-09 05:35:00,
2013-03-09 00:40:00,24.5,22.5,30.34,WNW,285,0.0,0.0,92,0.00,,,0.00,0,Wunderground v.1.15,2013-03-09 05:40:00,
2013-03-09 00:46:00,24.3,22.3,30.34,WNW,285,0.0,0.0,92,0.00,,,0.00,0,Wunderground v.1.15,2013-03-09 05:46:00,
2013-03-09 00:52:00,24.3,22.3,30.34,WNW,285,0.0,0.0,92,0.00,,,0.00,0,Wunderground v.1.15,2013-03-09 05:52:00,
2013-03-09 00:57:00,24.1,22.1,30.34,WNW,285,0.0,0.0,92,0.00,,,0.00,0,Wunderground v.1.15,2013-03-09 05:57:00,
2013-03-09 01:03:00,24.0,22.0,30.34,WNW,285,0.0,0.0,92,0.00,,,0.00,0,Wunderground v.1.15,2013-03-09 06:03:00,
2013-03-09 01:09:00,23.9,21.9,30.34,WNW,285,0.0,0.0,92,0.00,,,0.00,0,Wunderground v.1.15,2013-03-09 06:09:00,
2013-03-09 01:15:00,23.8,21.8,30.35,WNW,285,0.0,0.0,92,0.00,,,0.00,0,Wunderground v.1.15,2013-03-09 06:15:00,
2013-03-09 01:21:00,23.6,21.6,30.35,WNW,285,0.0,0.0,92,0.00,,,0.00,0,Wunderground v.1.15,2013-03-09 06:21:00,
2013-03-09 01:26:00,23.4,21.4,30.34,WNW,285,0.0,0.0,92,0.00,,,0.00,0,Wunderground v.1.15,2013-03-09 06:26:00,
2013-03-09 01:32:00,23.3,21.3,30.34,WNW,285,0.0,0.0,92,0.00,,,0.00,0,Wunderground v.1.15,2013-03-09 06:32:00,
2013-03-09 01:37:00,23.1,21.1,30.34,WNW,285,0.0,0.0,92,0.00,,,0.00,0,Wunderground v.1.15,2013-03-09 06:37:00,
2013-03-09 01:43:00,23.0,21.0,30.33,WNW,285,0.0,0.0,92,0.00,,,0.00,0,Wunderground v.1.15,2013-03-09 06:43:00,
2013-03-09 01:48:00,22.9,20.9,30.33,WNW,285,0.0,0.0,92,0.00,,,0.00,0,Wunderground v.1.15,2013-03-09 06:48:00,
2013-03-09 01:54:00,23.0,21.0,30.32,WNW,285,0.0,0.0,92,0.00,,,0.00,0,Wunderground v.1.15,2013-03-09 06:54:00,
2013-03-09 02:00:00,23.0,21.0,30.32,WNW,285,0.0,0.0,92,0.00,,,0.00,0,Wunderground v.1.15,2013-03-09 07:00:00,
2013-03-09 02:05:00,23.0,21.0,30.32,WNW,285,0.0,0.0,92,0.00,,,0.00,0,Wunderground v.1.15,2013-03-09 07:05:00,
2013-03-09 02:11:00,22.9,20.9,30.32,WNW,285,0.0,0.0,92,0.00,,,0.00,0,Wunderground v.1.15,2013-03-09 07:11:00,
2013-03-09 02:17:00,22.9,20.9,30.32,WNW,285,0.0,0.0,92,0.00,,,0.00,0,Wunderground v.1.15,2013-03-09 07:17:00,
2013-03-09 02:22:00,22.9,20.9,30.32,WNW,285,0.0,0.0,92,0.00,,,0.00,0,Wunderground v.1.15,2013-03-09 07:22:00,
2013-03-09 02:27:00,22.9,20.9,30.32,WNW,285,0.0,0.0,92,0.00,,,0.00,0,Wunderground v.1.15,2013-03-09 07:27:00,
2013-03-09 02:32:00,22.9,20.9,30.32,WNW,285,0.0,0.0,92,0.00,,,0.00,0,Wunderground v.1.15,2013-03-09 07:32:00,
2013-03-09 02:38:00,22.9,20.9,30.31,WNW,285,0.0,0.0,92,0.00,,,0.00,0,Wunderground v.1.15,2013-03-09 07:38:00,
2013-03-09 02:44:00,22.7,20.7,30.30,WNW,285,0.0,0.0,92,0.00,,,0.00,0,Wunderground v.1.15,2013-03-09 07:44:00,
2013-03-09 02:49:00,22.6,20.6,30.30,WNW,285,0.0,0.0,92,0.00,,,0.00,0,Wunderground v.1.15,2013-03-09 07:49:00,
2013-03-09 02:54:00,22.5,20.5,30.30,WNW,285,0.0,0.0,92,0.00,,,0.00,0,Wunderground v.1.15,2013-03-09 07:54:00,
2013-03-09 02:59:00,22.5,20.5,30.30,WNW,285,0.0,0.0,92,0.00,,,0.00,0,Wunderground v.1.15,2013-03-09 07:59:00,
2013-03-09 03:05:00,22.5,20.5,30.30,WNW,285,0.0,0.0,92,0.00,,,0.00,0,Wunderground v.1.15,2013-03-09 08:05:00,
2013-03-09 03:11:00,22.4,20.4,30.30,WNW,285,0.0,0.0,92,0.00,,,0.00,0,Wunderground v.1.15,2013-03-09 08:11:00,
2013-03-09 03:16:00,22.4,20.7,30.30,WNW,285,0.0,0.0,93,0.00,,,0.00,0,Wunderground v.1.15,2013-03-09 08:16:00,
2013-03-09 03:21:00,22.3,20.3,30.30,WNW,285,0.0,0.0,92,0.00,,,0.00,0,Wunderground v.1.15,2013-03-09 08:21:00,
2013-03-09 03:26:00,22.1,20.1,30.30,WNW,285,0.0,0.0,92,0.00,,,0.00,0,Wunderground v.1.15,2013-03-09 08:26:00,
2013-03-09 03:31:00,22.0,20.0,30.30,WNW,285,0.0,0.0,92,0.00,,,0.00,0,Wunderground v.1.15,2013-03-09 08:31:00,
2013-03-09 03:37:00,21.9,19.9,30.30,WNW,285,0.0,0.0,92,0.00,,,0.00,0,Wunderground v.1.15,2013-03-09 08:37:00,
2013-03-09 03:42:00,21.8,19.8,30.30,WNW,285,0.0,0.0,92,0.00,,,0.00,0,Wunderground v.1.15,2013-03-09 08:42:00,
2013-03-09 03:48:00,21.8,19.8,30.30,WNW,285,0.0,0.0,92,0.00,,,0.00,0,Wunderground v.1.15,2013-03-09 08:48:00,
2013-03-09 03:54:00,21.8,19.8,30.30,WNW,285,0.0,0.0,92,0.00,,,0.00,0,Wunderground v.1.15,2013-03-09 08:54:00,
2013-03-09 04:00:00,21.5,19.5,30.30,WNW,285,0.0,0.0,92,0.00,,,0.00,0,Wunderground v.1.15,2013-03-09 09:00:00,
2013-03-09 04:06:00,21.5,19.8,30.30,WNW,285,0.0,0.0,93,0.00,,,0.00,0,Wunderground v.1.15,2013-03-09 09:06:00,
2013-03-09 04:12:00,21.5,19.8,30.31,WNW,285,0.0,0.0,93,0.00,,,0.00,0,Wunderground v.1.15,2013-03-09 09:12:00,
2013-03-09 04:18:00,21.4,19.7,30.30,WNW,285,0.0,0.0,93,0.00,,,0.00,0,Wunderground v.1.15,2013-03-09 09:18:00,
2013-03-09 04:23:00,21.3,19.6,30.30,WNW,285,0.0,0.0,93,0.00,,,0.00,0,Wunderground v.1.15,2013-03-09 09:23:00,
2013-03-09 04:29:00,21.2,19.2,30.30,WNW,285,0.0,0.0,92,0.00,,,0.00,0,Wunderground v.1.15,2013-03-09 09:29:00,
2013-03-09 04:34:00,21.1,19.1,30.30,WNW,285,0.0,0.0,92,0.00,,,0.00,0,Wunderground v.1.15,2013-03-09 09:34:00,
2013-03-09 04:40:00,21.1,19.1,30.30,WNW,285,0.0,0.0,92,0.00,,,0.00,0,Wunderground v.1.15,2013-03-09 09:40:00,
2013-03-09 04:45:00,21.2,19.5,30.31,WNW,285,0.0,0.0,93,0.00,,,0.00,0,Wunderground v.1.15,2013-03-09 09:45:00,
2013-03-09 04:50:00,21.2,19.5,30.30,WNW,285,0.0,0.0,93,0.00,,,0.00,0,Wunderground v.1.15,2013-03-09 09:50:00,
2013-03-09 04:56:00,21.2,19.5,30.30,WNW,285,0.0,0.0,93,0.00,,,0.00,0,Wunderground v.1.15,2013-03-09 09:56:00,
2013-03-09 05:01:00,21.2,19.5,30.31,WNW,285,0.0,0.0,93,0.00,,,0.00,0,Wunderground v.1.15,2013-03-09 10:01:00,
2013-03-09 05:07:00,21.1,19.1,30.30,WNW,285,0.0,0.0,92,0.00,,,0.00,0,Wunderground v.1.15,2013-03-09 10:07:00,
2013-03-09 05:12:00,21.1,19.4,30.30,WNW,285,0.0,0.0,93,0.00,,,0.00,0,Wunderground v.1.15,2013-03-09 10:12:00,
2013-03-09 05:17:00,21.0,19.0,30.31,WNW,285,0.0,0.0,92,0.00,,,0.00,0,Wunderground v.1.15,2013-03-09 10:17:00,
2013-03-09 05:22:00,20.9,18.9,30.31,WNW,285,0.0,0.0,92,0.00,,,0.00,0,Wunderground v.1.15,2013-03-09 10:22:00,
2013-03-09 05:27:00,20.8,18.8,30.30,WNW,285,0.0,0.0,92,0.00,,,0.00,0,Wunderground v.1.15,2013-03-09 10:27:00,
2013-03-09 05:32:00,20.8,18.8,30.31,WNW,285,0.0,0.0,92,0.00,,,0.00,0,Wunderground v.1.15,2013-03-09 10:32:00,
2013-03-09 05:38:00,20.9,18.9,30.31,WNW,285,0.0,0.0,92,0.00,,,0.00,0,Wunderground v.1.15,2013-03-09 10:38:00,
2013-03-09 05:43:00,20.9,19.2,30.31,WNW,285,0.0,0.0,93,0.00,,,0.00,0,Wunderground v.1.15,2013-03-09 10:43:00,
2013-03-09 05:48:00,20.8,18.8,30.31,WNW,285,0.0,0.0,92,0.00,,,0.00,0,Wunderground v.1.15,2013-03-09 10:48:00,
2013-03-09 05:53:00,20.7,19.0,30.31,WNW,285,0.0,0.0,93,0.00,,,0.00,0,Wunderground v.1.15,2013-03-09 10:53:00,
2013-03-09 05:58:00,20.8,18.8,30.31,WNW,285,0.0,0.0,92,0.00,,,0.00,0,Wunderground v.1.15,2013-03-09 10:58:00,
2013-03-09 06:03:00,20.8,18.8,30.32,WNW,285,0.0,0.0,92,0.00,,,0.00,0,Wunderground v.1.15,2013-03-09 11:03:00,
2013-03-09 06:09:00,20.7,19.0,30.32,WNW,285,0.0,0.0,93,0.00,,,0.00,0,Wunderground v.1.15,2013-03-09 11:09:00,
2013-03-09 06:15:00,20.6,18.6,30.32,WNW,285,0.0,0.0,92,0.00,,,0.00,0,Wunderground v.1.15,2013-03-09 11:15:00,
2013-03-09 06:20:00,20.5,18.5,30.32,WNW,285,0.0,0.0,92,0.00,,,0.00,0,Wunderground v.1.15,2013-03-09 11:20:00,
2013-03-09 06:25:00,20.4,18.4,30.31,WNW,285,0.0,0.0,92,0.00,,,0.00,0,Wunderground v.1.15,2013-03-09 11:25:00,
2013-03-09 06:30:00,20.3,18.3,30.32,WNW,285,0.0,0.0,92,0.00,,,0.00,0,Wunderground v.1.15,2013-03-09 11:30:00,
2013-03-09 06:35:00,20.3,18.3,30.32,WNW,285,0.0,0.0,92,0.00,,,0.00,0,Wunderground v.1.15,2013-03-09 11:35:00,
2013-03-09 06:40:00,20.2,18.2,30.32,WNW,285,0.0,0.0,92,0.00,,,0.00,0,Wunderground v.1.15,2013-03-09 11:40:00,
2013-03-09 06:45:00,20.1,18.1,30.32,WNW,285,0.0,0.0,92,0.00,,,0.00,5,Wunderground v.1.15,2013-03-09 11:45:00,
2013-03-09 06:50:00,19.9,18.0,30.33,WNW,285,0.0,0.0,92,0.00,,,0.00,7,Wunderground v.1.15,2013-03-09 11:50:00,
2013-03-09 06:56:00,19.9,18.0,30.33,WNW,285,0.0,0.0,92,0.00,,,0.00,9,Wunderground v.1.15,2013-03-09 11:56:00,
2013-03-09 07:02:00,19.8,17.9,30.33,WNW,285,0.0,0.0,92,0.00,,,0.00,11,Wunderground v.1.15,2013-03-09 12:02:00,
2013-03-09 07:08:00,19.9,18.0,30.33,WNW,285,0.0,0.0,92,0.00,,,0.00,14,Wunderground v.1.15,2013-03-09 12:08:00,
2013-03-09 07:13:00,20.0,18.3,30.33,WNW,285,0.0,0.0,93,0.00,,,0.00,16,Wunderground v.1.15,2013-03-09 12:13:00,
2013-03-09 07:18:00,20.1,18.4,30.33,WNW,285,0.0,0.0,93,0.00,,,0.00,19,Wunderground v.1.15,2013-03-09 12:18:00,
2013-03-09 07:24:00,20.4,18.7,30.34,WNW,285,0.0,0.0,93,0.00,,,0.00,25,Wunderground v.1.15,2013-03-09 12:24:00,
2013-03-09 07:29:00,21.0,19.3,30.34,WNW,285,0.0,0.0,93,0.00,,,0.00,26,Wunderground v.1.15,2013-03-09 12:29:00,
2013-03-09 07:34:00,21.8,20.3,30.34,WNW,285,0.0,0.0,94,0.00,,,0.00,28,Wunderground v.1.15,2013-03-09 12:34:00,
2013-03-09 07:40:00,23.0,21.8,30.34,WNW,285,0.0,0.0,95,0.00,,,0.00,32,Wunderground v.1.15,2013-03-09 12:40:00,
2013-03-09 07:45:00,24.0,22.8,30.34,WNW,285,0.0,0.0,95,0.00,,,0.00,32,Wunderground v.1.15,2013-03-09 12:45:00,
2013-03-09 07:50:00,24.9,23.7,30.34,WNW,285,0.0,0.0,95,0.00,,,0.00,33,Wunderground v.1.15,2013-03-09 12:50:00,
2013-03-09 07:56:00,25.9,24.7,30.34,WNW,285,0.0,0.0,95,0.00,,,0.00,35,Wunderground v.1.15,2013-03-09 12:56:00,
2013-03-09 08:02:00,26.8,25.6,30.34,WNW,285,0.0,0.0,95,0.00,,,0.00,37,Wunderground v.1.15,2013-03-09 13:02:00,
2013-03-09 08:08:00,27.9,26.9,30.34,WNW,285,0.0,0.0,96,0.00,,,0.00,39,Wunderground v.1.15,2013-03-09 13:08:00,
2013-03-09 08:13:00,29.3,28.3,30.34,WNW,285,0.0,0.0,96,0.00,,,0.00,40,Wunderground v.1.15,2013-03-09 13:13:00,
2013-03-09 08:18:00,30.8,29.8,30.34,WNW,285,0.0,0.0,96,0.00,,,0.00,42,Wunderground v.1.15,2013-03-09 13:18:00,
2013-03-09 08:24:00,32.1,31.1,30.34,WNW,285,0.0,0.0,96,0.00,,,0.00,46,Wunderground v.1.15,2013-03-09 13:24:00,
2013-03-09 08:29:00,33.2,31.9,30.34,WNW,285,0.0,0.0,95,0.00,,,0.00,53,Wunderground v.1.15,2013-03-09 13:29:00,
2013-03-09 08:34:00,33.8,31.7,30.34,WNW,285,0.0,0.0,92,0.00,,,0.00,60,Wunderground v.1.15,2013-03-09 13:34:00,
2013-03-09 08:40:00,34.2,30.4,30.34,WNW,285,0.0,0.0,86,0.00,,,0.00,69,Wunderground v.1.15,2013-03-09 13:40:00,
2013-03-09 08:45:00,34.7,30.7,30.33,WNW,285,0.0,0.0,85,0.00,,,0.00,88,Wunderground v.1.15,2013-03-09 13:45:00,
2013-03-09 08:50:00,35.0,30.4,30.33,WNW,285,0.0,0.0,83,0.00,,,0.00,104,Wunderground v.1.15,2013-03-09 13:50:00,
2013-03-09 08:56:00,35.1,29.6,30.33,East,88,1.0,2.0,80,0.00,,,0.00,128,Wunderground v.1.15,2013-03-09 13:56:00,
2013-03-09 09:02:00,35.0,29.8,30.32,East,100,0.0,1.0,81,0.00,,,0.00,146,Wunderground v.1.15,2013-03-09 14:02:00,
2013-03-09 09:09:00,35.1,29.6,30.32,ENE,73,0.0,1.0,80,0.00,,,0.00,176,Wunderground v.1.15,2013-03-09 14:09:00,
2013-03-09 09:15:00,35.6,29.7,30.32,ENE,70,0.0,0.0,79,0.00,,,0.00,229,Wunderground v.1.15,2013-03-09 14:15:00,
2013-03-09 09:20:00,35.9,29.4,30.32,ENE,63,1.0,1.0,77,0.00,,,0.00,265,Wunderground v.1.15,2013-03-09 14:20:00,
2013-03-09 09:25:00,36.0,29.2,30.32,NE,53,2.0,2.0,76,0.00,,,0.00,301,Wunderground v.1.15,2013-03-09 14:25:00,
2013-03-09 09:30:00,36.0,29.2,30.32,East,83,1.0,1.0,76,0.00,,,0.00,336,Wunderground v.1.15,2013-03-09 14:30:00,
2013-03-09 09:36:00,36.4,29.9,30.32,ENE,69,1.0,3.0,77,0.00,,,0.00,346,Wunderground v.1.15,2013-03-09 14:36:00,
2013-03-09 09:41:00,36.7,29.8,30.33,ENE,71,1.0,1.0,76,0.00,,,0.00,287,Wunderground v.1.15,2013-03-09 14:41:00,
2013-03-09 09:46:00,37.2,30.0,30.32,ESE,113,1.0,3.0,75,0.00,,,0.00,318,Wunderground v.1.15,2013-03-09 14:46:00,
2013-03-09 09:52:00,37.7,30.2,30.32,NE,34,1.0,2.0,74,0.00,,,0.00,278,Wunderground v.1.15,2013-03-09 14:52:00,
2013-03-09 09:57:00,38.0,30.1,30.33,East,100,1.0,2.0,73,0.00,,,0.00,408,Wunderground v.1.15,2013-03-09 14:57:00,
2013-03-09 10:03:00,38.6,30.4,30.32,East,80,1.0,3.0,72,0.00,,,0.00,403,Wunderground v.1.15,2013-03-09 15:03:00,
2013-03-09 10:08:00,39.0,30.4,30.32,SSE,155,1.0,3.0,71,0.00,,,0.00,388,Wunderground v.1.15,2013-03-09 15:08:00,
2013-03-09 10:14:00,39.5,30.9,30.31,ESE,119,1.0,3.0,71,0.00,,,0.00,390,Wunderground v.1.15,2013-03-09 15:14:00,
2013-03-09 10:19:00,39.7,30.7,30.31,SE,138,2.0,4.0,70,0.00,,,0.00,366,Wunderground v.1.15,2013-03-09 15:19:00,
2013-03-09 10:24:00,39.8,31.2,30.31,SE,139,3.0,4.0,71,0.00,,,0.00,345,Wunderground v.1.15,2013-03-09 15:24:00,
2013-03-09 10:29:00,40.0,31.0,30.31,ESE,103,2.0,4.0,70,0.00,,,0.00,346,Wunderground v.1.15,2013-03-09 15:29:00,
2013-03-09 10:35:00,40.3,30.9,30.30,SE,131,2.0,3.0,69,0.00,,,0.00,329,Wunderground v.1.15,2013-03-09 15:35:00,
2013-03-09 10:40:00,40.7,31.3,30.30,East,91,1.0,3.0,69,0.00,,,0.00,332,Wunderground v.1.15,2013-03-09 15:40:00,
2013-03-09 10:45:00,41.1,31.7,30.30,NE,42,1.0,2.0,69,0.00,,,0.00,318,Wunderground v.1.15,2013-03-09 15:45:00,
2013-03-09 10:51:00,41.5,31.7,30.30,ESE,107,1.0,2.0,68,0.00,,,0.00,329,Wunderground v.1.15,2013-03-09 15:51:00,
2013-03-09 10:56:00,41.8,31.6,30.30,East,91,1.0,1.0,67,0.00,,,0.00,374,Wunderground v.1.15,2013-03-09 15:56:00,
2013-03-09 11:02:00,42.2,32.4,30.30,SSE,165,1.0,3.0,68,0.00,,,0.00,469,Wunderground v.1.15,2013-03-09 16:02:00,
2013-03-09 11:08:00,42.3,32.5,30.29,ESE,119,1.0,3.0,68,0.00,,,0.00,392,Wunderground v.1.15,2013-03-09 16:08:00,
2013-03-09 11:13:00,42.8,32.2,30.30,SE,139,1.0,3.0,66,0.00,,,0.00,527,Wunderground v.1.15,2013-03-09 16:13:00,
2013-03-09 11:18:00,43.3,31.5,30.29,ESE,119,1.0,5.0,63,0.00,,,0.00,557,Wunderground v.1.15,2013-03-09 16:18:00,
2013-03-09 11:24:00,43.9,31.7,30.29,ESE,123,1.0,3.0,62,0.00,,,0.00,561,Wunderground v.1.15,2013-03-09 16:24:00,
2013-03-09 11:29:00,44.4,31.8,30.29,NNE,32,1.0,3.0,61,0.00,,,0.00,640,Wunderground v.1.15,2013-03-09 16:29:00,
2013-03-09 11:34:00,44.7,32.1,30.29,SSE,158,1.0,3.0,61,0.00,,,0.00,638,Wunderground v.1.15,2013-03-09 16:34:00,
2013-03-09 11:40:00,44.9,31.8,30.29,SSE,158,1.0,3.0,60,0.00,,,0.00,663,Wunderground v.1.15,2013-03-09 16:40:00,
2013-03-09 11:45:00,44.8,32.6,30.29,NNE,15,1.0,1.0,62,0.00,,,0.00,661,Wunderground v.1.15,2013-03-09 16:45:00,
2013-03-09 11:50:00,45.1,31.6,30.29,East,82,1.0,3.0,59,0.00,,,0.00,675,Wunderground v.1.15,2013-03-09 16:50:00,
2013-03-09 11:56:00,45.3,31.0,30.29,SE,146,1.0,2.0,57,0.00,,,0.00,686,Wunderground v.1.15,2013-03-09 16:56:00,
2013-03-09 12:02:00,45.5,31.1,30.28,SSE,168,1.0,2.0,57,0.00,,,0.00,696,Wunderground v.1.15,2013-03-09 17:02:00,
2013-03-09 12:08:00,45.7,30.9,30.27,NE,34,1.0,2.0,56,0.00,,,0.00,679,Wunderground v.1.15,2013-03-09 17:08:00,
2013-03-09 12:13:00,46.0,32.0,30.27,SSE,149,1.0,3.0,58,0.00,,,0.00,691,Wunderground v.1.15,2013-03-09 17:13:00,
2013-03-09 12:19:00,46.6,32.6,30.27,SSE,155,1.0,3.0,58,0.00,,,0.00,698,Wunderground v.1.15,2013-03-09 17:19:00,
2013-03-09 12:24:00,46.9,32.4,30.27,South,186,2.0,3.0,57,0.00,,,0.00,705,Wunderground v.1.15,2013-03-09 17:24:00,
2013-03-09 12:30:00,47.1,32.2,30.27,SSE,148,2.0,2.0,56,0.00,,,0.00,707,Wunderground v.1.15,2013-03-09 17:30:00,
2013-03-09 12:36:00,47.6,31.8,30.27,SE,145,1.0,2.0,54,0.00,,,0.00,707,Wunderground v.1.15,2013-03-09 17:36:00,
2013-03-09 12:42:00,48.1,33.1,30.26,East,83,1.0,1.0,56,0.00,,,0.00,710,Wunderground v.1.15,2013-03-09 17:42:00,
2013-03-09 12:48:00,48.6,33.6,30.26,ENE,58,1.0,2.0,56,0.00,,,0.00,710,Wunderground v.1.15,2013-03-09 17:48:00,
2013-03-09 12:54:00,48.9,33.0,30.25,ENE,58,1.0,2.0,54,0.00,,,0.00,712,Wunderground v.1.15,2013-03-09 17:54:00,
2013-03-09 12:59:00,49.1,33.6,30.26,NE,53,1.0,4.0,55,0.00,,,0.00,694,Wunderground v.1.15,2013-03-09 17:59:00,
2013-03-09 13:04:00,49.1,33.2,30.25,WNW,301,2.0,3.0,54,0.00,,,0.00,703,Wunderground v.1.15,2013-03-09 18:04:00,
2013-03-09 13:09:00,49.0,33.5,30.25,NNE,33,1.0,3.0,55,0.00,,,0.00,705,Wunderground v.1.15,2013-03-09 18:09:00,
2013-03-09 13:14:00,49.0,32.6,30.25,NNE,19,2.0,3.0,53,0.00,,,0.00,708,Wunderground v.1.15,2013-03-09 18:14:00,
2013-03-09 13:20:00,49.1,33.2,30.25,North,355,2.0,3.0,54,0.00,,,0.00,701,Wunderground v.1.15,2013-03-09 18:20:00,
2013-03-09 13:25:00,49.5,34.0,30.25,East,80,1.0,3.0,55,0.00,,,0.00,705,Wunderground v.1.15,2013-03-09 18:25:00,
2013-03-09 13:31:00,49.8,32.9,30.24,SE,128,1.0,3.0,52,0.00,,,0.00,696,Wunderground v.1.15,2013-03-09 18:31:00,
2013-03-09 13:36:00,50.1,33.6,30.24,South,177,1.0,3.0,53,0.00,,,0.00,698,Wunderground v.1.15,2013-03-09 18:36:00,
2013-03-09 13:41:00,50.4,33.9,30.23,SE,131,1.0,3.0,53,0.00,,,0.00,309,Wunderground v.1.15,2013-03-09 18:41:00,
2013-03-09 13:47:00,50.4,32.4,30.23,NE,39,2.0,3.0,50,0.00,,,0.00,410,Wunderground v.1.15,2013-03-09 18:47:00,
2013-03-09 13:53:00,50.3,32.8,30.23,North,355,2.0,2.0,51,0.00,,,0.00,334,Wunderground v.1.15,2013-03-09 18:53:00,
2013-03-09 14:00:00,50.4,33.4,30.22,NNW,345,1.0,1.0,52,0.00,,,0.00,441,Wunderground v.1.15,2013-03-09 19:00:00,
2013-03-09 14:06:00,50.7,33.2,30.22,SE,129,1.0,1.0,51,0.00,,,0.00,441,Wunderground v.1.15,2013-03-09 19:06:00,
2013-03-09 14:12:00,51.1,33.6,30.22,ENE,63,1.0,1.0,51,0.00,,,0.00,431,Wunderground v.1.15,2013-03-09 19:12:00,
2013-03-09 14:17:00,51.3,33.8,30.22,North,5,1.0,1.0,51,0.00,,,0.00,490,Wunderground v.1.15,2013-03-09 19:17:00,
2013-03-09 14:23:00,51.5,34.4,30.22,NW,305,1.0,1.0,52,0.00,,,0.00,366,Wunderground v.1.15,2013-03-09 19:23:00,
2013-03-09 14:28:00,51.5,33.5,30.21,NNW,336,2.0,3.0,50,0.00,,,0.00,455,Wunderground v.1.15,2013-03-09 19:28:00,
2013-03-09 14:33:00,51.7,34.1,30.21,NW,325,2.0,2.0,51,0.00,,,0.00,308,Wunderground v.1.15,2013-03-09 19:33:00,
2013-03-09 14:39:00,52.1,34.0,30.21,NW,326,1.0,2.0,50,0.00,,,0.00,480,Wunderground v.1.15,2013-03-09 19:39:00,
2013-03-09 14:44:00,52.4,33.3,30.21,SW,236,1.0,2.0,48,0.00,,,0.00,406,Wunderground v.1.15,2013-03-09 19:44:00,
2013-03-09 14:49:00,52.8,33.6,30.21,SE,136,1.0,3.0,48,0.00,,,0.00,584,Wunderground v.1.15,2013-03-09 19:49:00,
2013-03-09 14:55:00,53.0,32.2,30.21,South,172,2.0,4.0,45,0.00,,,0.00,589,Wunderground v.1.15,2013-03-09 19:55:00,
2013-03-09 15:01:00,53.2,32.9,30.20,SSE,163,2.0,2.0,46,0.00,,,0.00,573,Wunderground v.1.15,2013-03-09 20:01:00,
2013-03-09 15:06:00,53.3,33.0,30.20,South,190,2.0,3.0,46,0.00,,,0.00,548,Wunderground v.1.15,2013-03-09 20:06:00,
2013-03-09 15:11:00,53.5,33.2,30.20,SW,221,1.0,2.0,46,0.00,,,0.00,513,Wunderground v.1.15,2013-03-09 20:11:00,
2013-03-09 15:17:00,53.5,32.7,30.20,WSW,254,2.0,2.0,45,0.00,,,0.00,415,Wunderground v.1.15,2013-03-09 20:17:00,
2013-03-09 15:22:00,53.5,32.7,30.19,SW,224,2.0,2.0,45,0.00,,,0.00,265,Wunderground v.1.15,2013-03-09 20:22:00,
2013-03-09 15:28:00,53.6,32.2,30.19,SW,224,1.0,2.0,44,0.00,,,0.00,359,Wunderground v.1.15,2013-03-09 20:28:00,
2013-03-09 15:33:00,53.7,32.8,30.19,SW,219,1.0,1.0,45,0.00,,,0.00,348,Wunderground v.1.15,2013-03-09 20:33:00,
2013-03-09 15:39:00,53.9,33.0,30.18,East,91,2.0,5.0,45,0.00,,,0.00,392,Wunderground v.1.15,2013-03-09 20:39:00,
2013-03-09 15:45:00,54.0,32.6,30.18,SSE,167,3.0,3.0,44,0.00,,,0.00,385,Wunderground v.1.15,2013-03-09 20:45:00,
2013-03-09 15:50:00,54.0,33.1,30.18,NNE,12,2.0,4.0,45,0.00,,,0.00,471,Wunderground v.1.15,2013-03-09 20:50:00,
2013-03-09 15:55:00,54.1,32.6,30.18,ENE,71,2.0,2.0,44,0.00,,,0.00,404,Wunderground v.1.15,2013-03-09 20:55:00,
2013-03-09 16:02:00,54.4,32.3,30.18,SE,137,1.0,1.0,43,0.00,,,0.00,257,Wunderground v.1.15,2013-03-09 21:02:00,
2013-03-09 16:07:00,54.5,32.4,30.17,ENE,63,1.0,4.0,43,0.00,,,0.00,251,Wunderground v.1.15,2013-03-09 21:07:00,
2013-03-09 16:13:00,54.6,33.1,30.17,ENE,71,1.0,1.0,44,0.00,,,0.00,278,Wunderground v.1.15,2013-03-09 21:13:00,
2013-03-09 16:18:00,54.8,33.3,30.17,SE,144,2.0,5.0,44,0.00,,,0.00,93,Wunderground v.1.15,2013-03-09 21:18:00,
2013-03-09 16:24:00,54.9,32.2,30.17,SE,132,2.0,4.0,42,0.00,,,0.00,172,Wunderground v.1.15,2013-03-09 21:24:00,
2013-03-09 16:29:00,54.8,31.5,30.17,SE,134,2.0,4.0,41,0.00,,,0.00,218,Wunderground v.1.15,2013-03-09 21:29:00,
2013-03-09 16:35:00,54.8,31.5,30.17,SE,138,1.0,1.0,41,0.00,,,0.00,116,Wunderground v.1.15,2013-03-09 21:35:00,
2013-03-09 16:40:00,54.8,33.3,30.17,SE,138,0.0,1.0,44,0.00,,,0.00,113,Wunderground v.1.15,2013-03-09 21:40:00,
2013-03-09 16:45:00,54.8,32.1,30.17,East,82,1.0,1.0,42,0.00,,,0.00,113,Wunderground v.1.15,2013-03-09 21:45:00,
2013-03-09 16:51:00,54.8,32.7,30.17,ESE,111,1.0,1.0,43,0.00,,,0.00,100,Wunderground v.1.15,2013-03-09 21:51:00,
2013-03-09 16:56:00,54.8,32.1,30.16,East,90,1.0,2.0,42,0.00,,,0.00,105,Wunderground v.1.15,2013-03-09 21:56:00,
2013-03-09 17:03:00,54.7,32.0,30.16,East,95,1.0,1.0,42,0.00,,,0.00,120,Wunderground v.1.15,2013-03-09 22:03:00,
2013-03-09 17:08:00,54.7,32.0,30.16,East,97,0.0,1.0,42,0.00,,,0.00,97,Wunderground v.1.15,2013-03-09 22:08:00,
2013-03-09 17:13:00,54.6,31.9,30.16,East,101,0.0,2.0,42,0.00,,,0.00,86,Wunderground v.1.15,2013-03-09 22:13:00,
2013-03-09 17:19:00,54.5,31.9,30.16,ESE,117,1.0,2.0,42,0.00,,,0.00,144,Wunderground v.1.15,2013-03-09 22:19:00,
2013-03-09 17:24:00,54.5,31.9,30.16,ESE,115,1.0,1.0,42,0.00,,,0.00,104,Wunderground v.1.15,2013-03-09 22:24:00,
2013-03-09 17:29:00,54.6,31.9,30.15,ESE,115,0.0,1.0,42,0.00,,,0.00,105,Wunderground v.1.15,2013-03-09 22:29:00,
2013-03-09 17:35:00,54.5,31.9,30.15,ESE,115,0.0,0.0,42,0.00,,,0.00,67,Wunderground v.1.15,2013-03-09 22:35:00,
2013-03-09 17:40:00,54.4,31.8,30.15,ESE,115,0.0,0.0,42,0.00,,,0.00,58,Wunderground v.1.15,2013-03-09 22:40:00,
2013-03-09 17:46:00,54.2,31.6,30.15,ESE,115,0.0,0.0,42,0.00,,,0.00,63,Wunderground v.1.15,2013-03-09 22:46:00,
2013-03-09 17:51:00,54.0,34.2,30.15,ESE,115,0.0,0.0,47,0.00,,,0.00,47,Wunderground v.1.15,2013-03-09 22:51:00,
2013-03-09 17:57:00,53.6,33.8,30.16,ESE,115,0.0,0.0,47,0.00,,,0.00,33,Wunderground v.1.15,2013-03-09 22:57:00,
2013-03-09 18:02:00,53.1,33.4,30.16,ESE,115,0.0,0.0,47,0.00,,,0.00,30,Wunderground v.1.15,2013-03-09 23:02:00,
2013-03-09 18:08:00,52.4,34.3,30.16,ESE,115,0.0,0.0,50,0.00,,,0.00,16,Wunderground v.1.15,2013-03-09 23:08:00,
2013-03-09 18:13:00,51.5,34.0,30.16,ESE,115,0.0,0.0,51,0.00,,,0.00,7,Wunderground v.1.15,2013-03-09 23:13:00,
2013-03-09 18:19:00,50.7,33.7,30.16,ESE,115,0.0,0.0,52,0.00,,,0.00,0,Wunderground v.1.15,2013-03-09 23:19:00,
2013-03-09 18:24:00,49.9,33.4,30.16,ESE,115,0.0,0.0,53,0.00,,,0.00,0,Wunderground v.1.15,2013-03-09 23:24:00,
2013-03-09 18:29:00,49.0,33.5,30.16,ESE,115,0.0,0.0,55,0.00,,,0.00,0,Wunderground v.1.15,2013-03-09 23:29:00,
2013-03-09 18:35:00,48.2,34.5,30.15,ESE,115,0.0,0.0,59,0.00,,,0.00,0,Wunderground v.1.15,2013-03-09 23:35:00,
2013-03-09 18:40:00,47.4,34.2,30.15,ESE,115,0.0,0.0,60,0.00,,,0.00,0,Wunderground v.1.15,2013-03-09 23:40:00,
2013-03-09 18:46:00,46.5,34.2,30.15,ESE,115,0.0,0.0,62,0.00,,,0.00,0,Wunderground v.1.15,2013-03-09 23:46:00,
2013-03-09 18:52:00,45.7,33.8,30.15,ESE,115,0.0,0.0,63,0.00,,,0.00,0,Wunderground v.1.15,2013-03-09 23:52:00,
2013-03-09 18:58:00,44.8,33.7,30.15,ESE,115,0.0,0.0,65,0.00,,,0.00,0,Wunderground v.1.15,2013-03-09 23:58:00,
2013-03-09 19:03:00,44.1,33.5,30.15,ESE,115,0.0,0.0,66,0.00,,,0.00,0,Wunderground v.1.15,2013-03-10 00:03:00,
2013-03-09 19:09:00,43.3,33.4,30.15,ESE,115,0.0,0.0,68,0.00,,,0.00,0,Wunderground v.1.15,2013-03-10 00:09:00,
2013-03-09 19:15:00,42.5,33.0,30.15,ESE,115,0.0,0.0,69,0.00,,,0.00,0,Wunderground v.1.15,2013-03-10 00:15:00,
2013-03-09 19:21:00,41.9,33.2,30.15,ESE,115,0.0,0.0,71,0.00,,,0.00,0,Wunderground v.1.15,2013-03-10 00:21:00,
2013-03-09 19:27:00,41.3,32.6,30.15,ESE,115,0.0,0.0,71,0.00,,,0.00,0,Wunderground v.1.15,2013-03-10 00:27:00,
2013-03-09 19:32:00,40.7,32.4,30.15,ESE,115,0.0,0.0,72,0.00,,,0.00,0,Wunderground v.1.15,2013-03-10 00:32:00,
2013-03-09 19:38:00,40.1,32.5,30.15,ESE,115,0.0,0.0,74,0.00,,,0.00,0,Wunderground v.1.15,2013-03-10 00:38:00,
2013-03-09 19:44:00,39.6,32.0,30.15,ESE,115,0.0,0.0,74,0.00,,,0.00,0,Wunderground v.1.15,2013-03-10 00:44:00,
2013-03-09 19:49:00,39.2,32.3,30.15,ESE,115,0.0,0.0,76,0.00,,,0.00,0,Wunderground v.1.15,2013-03-10 00:49:00,
2013-03-09 19:56:00,38.7,31.8,30.03,ESE,115,0.0,0.0,76,0.00,,,0.00,0,Wunderground v.1.15,2013-03-10 00:56:00,
2013-03-09 20:03:00,38.2,31.6,30.03,ESE,115,0.0,0.0,77,0.00,,,0.00,0,Wunderground v.1.15,2013-03-10 01:03:00,
2013-03-09 20:09:00,37.8,31.6,30.03,ESE,115,0.0,0.0,78,0.00,,,0.00,0,Wunderground v.1.15,2013-03-10 01:09:00,
2013-03-09 20:14:00,37.4,31.2,30.03,ESE,115,0.0,0.0,78,0.00,,,0.00,0,Wunderground v.1.15,2013-03-10 01:14:00,
2013-03-09 20:20:00,37.1,31.2,30.03,ESE,115,0.0,0.0,79,0.00,,,0.00,0,Wunderground v.1.15,2013-03-10 01:20:00,
2013-03-09 20:26:00,36.6,30.7,30.03,ESE,115,0.0,0.0,79,0.00,,,0.00,0,Wunderground v.1.15,2013-03-10 01:26:00,
2013-03-09 20:32:00,36.3,30.7,30.03,ESE,115,0.0,0.0,80,0.00,,,0.00,0,Wunderground v.1.15,2013-03-10 01:32:00,
2013-03-09 20:38:00,36.0,30.7,30.03,ESE,115,0.0,0.0,81,0.00,,,0.00,0,Wunderground v.1.15,2013-03-10 01:38:00,
2013-03-09 20:44:00,35.7,30.7,30.03,ESE,115,0.0,0.0,82,0.00,,,0.00,0,Wunderground v.1.15,2013-03-10 01:44:00,
2013-03-09 20:50:00,35.4,30.5,30.03,ESE,115,0.0,0.0,82,0.00,,,0.00,0,Wunderground v.1.15,2013-03-10 01:50:00,
2013-03-09 20:56:00,35.1,30.2,30.03,ESE,115,0.0,0.0,82,0.00,,,0.00,0,Wunderground v.1.15,2013-03-10 01:56:00,
2013-03-09 21:02:00,34.8,30.2,30.03,ESE,115,0.0,0.0,83,0.00,,,0.00,0,Wunderground v.1.15,2013-03-10 02:02:00,
2013-03-09 21:09:00,34.5,29.9,30.03,ESE,115,0.0,0.0,83,0.00,,,0.00,0,Wunderground v.1.15,2013-03-10 02:09:00,
2013-03-09 21:15:00,34.3,30.0,30.03,ESE,115,0.0,0.0,84,0.00,,,0.00,0,Wunderground v.1.15,2013-03-10 02:15:00,
2013-03-09 21:22:00,34.1,29.8,30.03,ESE,115,0.0,0.0,84,0.00,,,0.00,0,Wunderground v.1.15,2013-03-10 02:22:00,
2013-03-09 21:27:00,34.0,29.7,30.03,ESE,115,0.0,0.0,84,0.00,,,0.00,0,Wunderground v.1.15,2013-03-10 02:27:00,
2013-03-09 21:32:00,33.8,29.5,30.03,ESE,115,0.0,0.0,84,0.00,,,0.00,0,Wunderground v.1.15,2013-03-10 02:32:00,
2013-03-09 21:37:00,33.7,29.7,30.03,ESE,115,0.0,0.0,85,0.00,,,0.00,0,Wunderground v.1.15,2013-03-10 02:37:00,
2013-03-09 21:42:00,33.5,29.5,30.03,ESE,115,0.0,0.0,85,0.00,,,0.00,0,Wunderground v.1.15,2013-03-10 02:42:00,
2013-03-09 21:47:00,33.4,29.4,30.03,ESE,115,0.0,0.0,85,0.00,,,0.00,0,Wunderground v.1.15,2013-03-10 02:47:00,
2013-03-09 21:53:00,33.2,29.2,30.03,ESE,115,0.0,0.0,85,0.00,,,0.00,0,Wunderground v.1.15,2013-03-10 02:53:00,
2013-03-09 21:59:00,33.1,29.1,30.03,ESE,115,0.0,0.0,85,0.00,,,0.00,0,Wunderground v.1.15,2013-03-10 02:59:00,
2013-03-09 22:05:00,32.9,29.2,30.02,ESE,115,0.0,0.0,86,0.00,,,0.00,0,Wunderground v.1.15,2013-03-10 03:05:00,
2013-03-09 22:11:00,32.8,29.1,30.02,ESE,115,0.0,0.0,86,0.00,,,0.00,0,Wunderground v.1.15,2013-03-10 03:11:00,
2013-03-09 22:16:00,32.6,28.9,30.02,ESE,115,0.0,0.0,86,0.00,,,0.00,0,Wunderground v.1.15,2013-03-10 03:16:00,
2013-03-09 22:23:00,32.5,28.8,30.01,ESE,115,0.0,0.0,86,0.00,,,0.00,0,Wunderground v.1.15,2013-03-10 03:23:00,
2013-03-09 22:28:00,32.3,28.6,30.01,ESE,115,0.0,0.0,86,0.00,,,0.00,0,Wunderground v.1.15,2013-03-10 03:28:00,
2013-03-09 22:33:00,32.2,28.5,30.01,ESE,115,0.0,0.0,86,0.00,,,0.00,0,Wunderground v.1.15,2013-03-10 03:33:00,
2013-03-09 22:38:00,32.0,28.3,30.01,ESE,115,0.0,0.0,86,0.00,,,0.00,0,Wunderground v.1.15,2013-03-10 03:38:00,
2013-03-09 22:45:00,32.0,28.6,30.00,ESE,115,0.0,0.0,87,0.00,,,0.00,0,Wunderground v.1.15,2013-03-10 03:45:00,
2013-03-09 22:50:00,32.0,28.6,30.01,ESE,115,0.0,0.0,87,0.00,,,0.00,0,Wunderground v.1.15,2013-03-10 03:50:00,
2013-03-09 22:56:00,32.0,28.3,30.01,ESE,115,0.0,0.0,86,0.00,,,0.00,0,Wunderground v.1.15,2013-03-10 03:56:00,
2013-03-09 23:03:00,32.0,28.3,30.01,ESE,115,0.0,0.0,86,0.00,,,0.00,0,Wunderground v.1.15,2013-03-10 04:03:00,
2013-03-09 23:09:00,32.0,28.3,30.01,ESE,115,0.0,0.0,86,0.00,,,0.00,0,Wunderground v.1.15,2013-03-10 04:09:00,
2013-03-09 23:16:00,31.9,28.2,30.00,ESE,115,0.0,0.0,86,0.00,,,0.00,0,Wunderground v.1.15,2013-03-10 04:16:00,
2013-03-09 23:23:00,31.9,28.2,30.00,ESE,115,0.0,0.0,86,0.00,,,0.00,0,Wunderground v.1.15,2013-03-10 04:23:00,
2013-03-09 23:28:00,31.9,28.2,30.00,ESE,115,0.0,0.0,86,0.00,,,0.00,0,Wunderground v.1.15,2013-03-10 04:28:00,
2013-03-09 23:33:00,31.8,28.1,30.00,ESE,115,0.0,0.0,86,0.00,,,0.00,0,Wunderground v.1.15,2013-03-10 04:33:00,
2013-03-09 23:38:00,31.8,28.1,30.00,ESE,115,0.0,0.0,86,0.00,,,0.00,0,Wunderground v.1.15,2013-03-10 04:38:00,
2013-03-09 23:43:00,31.7,28.0,30.00,ESE,115,0.0,0.0,86,0.00,,,0.00,0,Wunderground v.1.15,2013-03-10 04:43:00,
2013-03-09 23:48:00,31.7,28.0,30.00,ESE,115,0.0,0.0,86,0.00,,,0.00,0,Wunderground v.1.15,2013-03-10 04:48:00,
2013-03-09 23:53:00,31.7,28.0,30.00,ESE,115,0.0,0.0,86,0.00,,,0.00,0,Wunderground v.1.15,2013-03-10 04:53:00,
2013-03-09 23:58:00,31.6,27.9,30.00,ESE,115,0.0,0.0,86,0.00,,,0.00,0,Wunderground v.1.15,2013-03-10 04:58:00,